Terminal Aerodrome Forecast
Issued by NWS Portland, OR

Home | Current Version | Previous Version | Text Only | Print | Product List | Glossary On
Versions: 1 2 3 4 5 6 7 8 9 10 11 12 13 14 15 16 17 18 19 20 21 22 23 24 25 26
000
FTUS46 KPQR 232336
TAFSLE
TAF
KSLE 232336Z 2400/2424 31008KT P6SM BKN150
     FM240900 31004KT P6SM BKN025
     FM241200 29004KT P6SM -DZ SCT010 BKN020
     FM242100 36007KT P6SM SCT300=

USA.gov is the U.S. government's official web portal to all federal, state and local government web resources and services.